sensor_id;sensor_type;location;lat;lon;timestamp;temperature;humidity
28244;DHT22;15510;52.512;13.300;2022-09-09T00:00:30;15.70;99.90
28244;DHT22;15510;52.512;13.300;2022-09-09T00:03:14;15.70;99.90
28244;DHT22;15510;52.512;13.300;2022-09-09T00:06:02;15.60;99.90
28244;DHT22;15510;52.512;13.300;2022-09-09T00:08:53;15.60;99.90
28244;DHT22;15510;52.512;13.300;2022-09-09T00:11:28;15.60;99.90
28244;DHT22;15510;52.512;13.300;2022-09-09T00:13:59;15.60;99.90
28244;DHT22;15510;52.512;13.300;2022-09-09T00:16:27;15.50;99.90
28244;DHT22;15510;52.512;13.300;2022-09-09T00:21:36;15.50;99.90
28244;DHT22;15510;52.512;13.300;2022-09-09T00:24:18;15.60;99.90
28244;DHT22;15510;52.512;13.300;2022-09-09T00:26:51;15.60;99.90
28244;DHT22;15510;52.512;13.300;2022-09-09T00:29:28;15.50;99.90
28244;DHT22;15510;52.512;13.300;2022-09-09T00:32:05;15.50;99.90
28244;DHT22;15510;52.512;13.300;2022-09-09T00:34:34;15.50;99.90
28244;DHT22;15510;52.512;13.300;2022-09-09T00:37:02;15.50;99.90
28244;DHT22;15510;52.512;13.300;2022-09-09T00:39:36;15.50;99.90
28244;DHT22;15510;52.512;13.300;2022-09-09T00:42:10;15.50;99.90
28244;DHT22;15510;52.512;13.300;2022-09-09T00:44:38;15.50;99.90
28244;DHT22;15510;52.512;13.300;2022-09-09T00:47:31;15.50;99.90
28244;DHT22;15510;52.512;13.300;2022-09-09T00:53:19;15.40;99.90
28244;DHT22;15510;52.512;13.300;2022-09-09T00:58:25;15.40;99.90
28244;DHT22;15510;52.512;13.300;2022-09-09T01:01:13;15.40;99.90
28244;DHT22;15510;52.512;13.300;2022-09-09T01:03:55;15.40;99.90
28244;DHT22;15510;52.512;13.300;2022-09-09T01:06:33;15.50;99.90
28244;DHT22;15510;52.512;13.300;2022-09-09T01:12:16;15.40;99.90
28244;DHT22;15510;52.512;13.300;2022-09-09T01:14:48;15.40;99.90
28244;DHT22;15510;52.512;13.300;2022-09-09T01:17:36;15.40;99.90
28244;DHT22;15510;52.512;13.300;2022-09-09T01:20:36;15.40;99.90
28244;DHT22;15510;52.512;13.300;2022-09-09T01:23:32;15.40;99.90
28244;DHT22;15510;52.512;13.300;2022-09-09T01:26:39;15.30;99.90
28244;DHT22;15510;52.512;13.300;2022-09-09T01:29:13;15.30;99.90
28244;DHT22;15510;52.512;13.300;2022-09-09T01:34:25;15.30;99.90
28244;DHT22;15510;52.512;13.300;2022-09-09T01:37:08;15.30;99.90
28244;DHT22;15510;52.512;13.300;2022-09-09T01:39:37;15.30;99.90
28244;DHT22;15510;52.512;13.300;2022-09-09T01:42:09;15.20;99.90
28244;DHT22;15510;52.512;13.300;2022-09-09T01:44:38;15.20;99.90
28244;DHT22;15510;52.512;13.300;2022-09-09T01:47:04;15.20;99.90
28244;DHT22;15510;52.512;13.300;2022-09-09T01:49:31;15.10;99.90
28244;DHT22;15510;52.512;13.300;2022-09-09T01:52:01;15.10;99.90
28244;DHT22;15510;52.512;13.300;2022-09-09T01:54:32;15.00;99.90
28244;DHT22;15510;52.512;13.300;2022-09-09T01:57:20;15.00;99.90
28244;DHT22;15510;52.512;13.300;2022-09-09T02:00:01;14.90;99.90
28244;DHT22;15510;52.512;13.300;2022-09-09T02:02:51;15.00;99.90
28244;DHT22;15510;52.512;13.300;2022-09-09T02:05:55;14.90;99.90
28244;DHT22;15510;52.512;13.300;2022-09-09T02:11:23;14.90;99.90
28244;DHT22;15510;52.512;13.300;2022-09-09T02:14:15;14.90;99.90
28244;DHT22;15510;52.512;13.300;2022-09-09T02:16:55;14.80;99.90
28244;DHT22;15510;52.512;13.300;2022-09-09T02:19:32;14.80;99.90
28244;DHT22;15510;52.512;13.300;2022-09-09T02:22:07;14.80;99.90
28244;DHT22;15510;52.512;13.300;2022-09-09T02:24:37;14.80;99.90
28244;DHT22;15510;52.512;13.300;2022-09-09T02:27:23;14.80;99.90
28244;DHT22;15510;52.512;13.300;2022-09-09T02:29:49;14.80;99.90
28244;DHT22;15510;52.512;13.300;2022-09-09T02:32:22;14.80;99.90
28244;DHT22;15510;52.512;13.300;2022-09-09T02:34:56;14.70;99.90
28244;DHT22;15510;52.512;13.300;2022-09-09T02:37:28;14.80;99.90
28244;DHT22;15510;52.512;13.300;2022-09-09T02:39:56;14.70;99.90
28244;DHT22;15510;52.512;13.300;2022-09-09T02:42:23;14.70;99.90
28244;DHT22;15510;52.512;13.300;2022-09-09T02:44:51;14.70;99.90
28244;DHT22;15510;52.512;13.300;2022-09-09T02:47:50;14.70;99.90
28244;DHT22;15510;52.512;13.300;2022-09-09T02:50:36;14.70;99.90
28244;DHT22;15510;52.512;13.300;2022-09-09T02:53:16;14.60;99.90
28244;DHT22;15510;52.512;13.300;2022-09-09T02:56:17;14.70;99.90
28244;DHT22;15510;52.512;13.300;2022-09-09T02:58:46;14.70;99.90
28244;DHT22;15510;52.512;13.300;2022-09-09T03:01:12;14.70;99.90
28244;DHT22;15510;52.512;13.300;2022-09-09T03:03:39;14.60;99.90
28244;DHT22;15510;52.512;13.300;2022-09-09T03:06:10;14.60;99.90
28244;DHT22;15510;52.512;13.300;2022-09-09T03:08:38;14.60;99.90
28244;DHT22;15510;52.512;13.300;2022-09-09T03:11:03;14.60;99.90
28244;DHT22;15510;52.512;13.300;2022-09-09T03:13:32;14.60;99.90
28244;DHT22;15510;52.512;13.300;2022-09-09T03:15:59;14.60;99.90
28244;DHT22;15510;52.512;13.300;2022-09-09T03:18:25;14.60;99.90
28244;DHT22;15510;52.512;13.300;2022-09-09T03:20:53;14.60;99.90
28244;DHT22;15510;52.512;13.300;2022-09-09T03:23:19;14.60;99.90
28244;DHT22;15510;52.512;13.300;2022-09-09T03:25:48;14.60;99.90
28244;DHT22;15510;52.512;13.300;2022-09-09T03:28:16;14.60;99.90
28244;DHT22;15510;52.512;13.300;2022-09-09T03:30:42;14.60;99.90
28244;DHT22;15510;52.512;13.300;2022-09-09T03:33:08;14.60;99.90
28244;DHT22;15510;52.512;13.300;2022-09-09T03:35:34;14.70;99.90
28244;DHT22;15510;52.512;13.300;2022-09-09T03:38:00;14.60;99.90
28244;DHT22;15510;52.512;13.300;2022-09-09T03:40:28;14.60;99.90
28244;DHT22;15510;52.512;13.300;2022-09-09T03:42:54;14.60;99.90
28244;DHT22;15510;52.512;13.300;2022-09-09T03:45:20;14.60;99.90
28244;DHT22;15510;52.512;13.300;2022-09-09T03:47:46;14.60;99.90
28244;DHT22;15510;52.512;13.300;2022-09-09T03:50:12;14.60;99.90
28244;DHT22;15510;52.512;13.300;2022-09-09T03:52:43;14.60;99.90
28244;DHT22;15510;52.512;13.300;2022-09-09T03:55:15;14.50;99.90
28244;DHT22;15510;52.512;13.300;2022-09-09T03:57:41;14.50;99.90
28244;DHT22;15510;52.512;13.300;2022-09-09T04:00:09;14.50;99.90
28244;DHT22;15510;52.512;13.300;2022-09-09T04:02:48;14.50;99.90
28244;DHT22;15510;52.512;13.300;2022-09-09T04:05:15;14.60;99.90
28244;DHT22;15510;52.512;13.300;2022-09-09T04:07:43;14.60;99.90
28244;DHT22;15510;52.512;13.300;2022-09-09T04:10:10;14.70;99.90
28244;DHT22;15510;52.512;13.300;2022-09-09T04:12:37;14.60;99.90
28244;DHT22;15510;52.512;13.300;2022-09-09T04:15:03;14.60;99.90
28244;DHT22;15510;52.512;13.300;2022-09-09T04:17:30;14.50;99.90
28244;DHT22;15510;52.512;13.300;2022-09-09T04:19:56;14.50;99.90
28244;DHT22;15510;52.512;13.300;2022-09-09T04:22:22;14.50;99.90
28244;DHT22;15510;52.512;13.300;2022-09-09T04:24:48;14.50;99.90
28244;DHT22;15510;52.512;13.300;2022-09-09T04:27:16;14.50;99.90
28244;DHT22;15510;52.512;13.300;2022-09-09T04:29:41;14.50;99.90
28244;DHT22;15510;52.512;13.300;2022-09-09T04:32:07;14.50;99.90
28244;DHT22;15510;52.512;13.300;2022-09-09T04:34:33;14.50;99.90
28244;DHT22;15510;52.512;13.300;2022-09-09T04:36:59;14.40;99.90
28244;DHT22;15510;52.512;13.300;2022-09-09T04:39:26;14.40;99.90
28244;DHT22;15510;52.512;13.300;2022-09-09T04:41:51;14.40;99.90
28244;DHT22;15510;52.512;13.300;2022-09-09T04:44:17;14.40;99.90
28244;DHT22;15510;52.512;13.300;2022-09-09T04:46:43;14.40;99.90
28244;DHT22;15510;52.512;13.300;2022-09-09T04:49:09;14.40;99.90
28244;DHT22;15510;52.512;13.300;2022-09-09T04:51:36;14.40;99.90
28244;DHT22;15510;52.512;13.300;2022-09-09T04:54:01;14.50;99.90
28244;DHT22;15510;52.512;13.300;2022-09-09T04:56:27;14.50;99.90
28244;DHT22;15510;52.512;13.300;2022-09-09T04:58:56;14.50;99.90
28244;DHT22;15510;52.512;13.300;2022-09-09T05:01:27;14.50;99.90
28244;DHT22;15510;52.512;13.300;2022-09-09T05:03:59;14.50;99.90
28244;DHT22;15510;52.512;13.300;2022-09-09T05:06:25;14.50;99.90
28244;DHT22;15510;52.512;13.300;2022-09-09T05:08:57;14.60;99.90
28244;DHT22;15510;52.512;13.300;2022-09-09T05:11:28;14.60;99.90
28244;DHT22;15510;52.512;13.300;2022-09-09T05:13:59;14.70;99.90
28244;DHT22;15510;52.512;13.300;2022-09-09T05:16:25;14.70;99.90
28244;DHT22;15510;52.512;13.300;2022-09-09T05:18:50;14.80;99.90
28244;DHT22;15510;52.512;13.300;2022-09-09T05:21:19;14.80;99.90
28244;DHT22;15510;52.512;13.300;2022-09-09T05:23:45;14.80;99.90
28244;DHT22;15510;52.512;13.300;2022-09-09T05:26:14;14.90;99.90
28244;DHT22;15510;52.512;13.300;2022-09-09T05:28:40;14.90;99.90
28244;DHT22;15510;52.512;13.300;2022-09-09T05:31:07;14.90;99.90
28244;DHT22;15510;52.512;13.300;2022-09-09T05:33:35;14.90;99.90
28244;DHT22;15510;52.512;13.300;2022-09-09T05:36:04;15.00;99.90
28244;DHT22;15510;52.512;13.300;2022-09-09T05:38:31;15.00;99.90
28244;DHT22;15510;52.512;13.300;2022-09-09T05:41:02;15.10;99.90
28244;DHT22;15510;52.512;13.300;2022-09-09T05:43:29;15.10;99.90
28244;DHT22;15510;52.512;13.300;2022-09-09T05:46:15;15.10;99.90
28244;DHT22;15510;52.512;13.300;2022-09-09T05:48:44;15.10;99.90
28244;DHT22;15510;52.512;13.300;2022-09-09T05:51:14;15.10;99.90
28244;DHT22;15510;52.512;13.300;2022-09-09T05:53:44;15.10;99.90
28244;DHT22;15510;52.512;13.300;2022-09-09T05:56:13;15.20;99.90
28244;DHT22;15510;52.512;13.300;2022-09-09T05:58:40;15.20;99.90
28244;DHT22;15510;52.512;13.300;2022-09-09T06:01:12;15.30;99.90
28244;DHT22;15510;52.512;13.300;2022-09-09T06:03:41;15.30;99.90
28244;DHT22;15510;52.512;13.300;2022-09-09T06:06:10;15.50;99.90
28244;DHT22;15510;52.512;13.300;2022-09-09T06:08:38;15.50;99.90
28244;DHT22;15510;52.512;13.300;2022-09-09T06:11:07;15.60;99.90
28244;DHT22;15510;52.512;13.300;2022-09-09T06:13:35;15.60;99.90
28244;DHT22;15510;52.512;13.300;2022-09-09T06:16:05;15.70;99.90
28244;DHT22;15510;52.512;13.300;2022-09-09T06:18:32;15.80;99.90
28244;DHT22;15510;52.512;13.300;2022-09-09T06:21:01;15.80;99.90
28244;DHT22;15510;52.512;13.300;2022-09-09T06:23:28;15.90;99.90
28244;DHT22;15510;52.512;13.300;2022-09-09T06:26:21;16.00;99.90
28244;DHT22;15510;52.512;13.300;2022-09-09T06:28:50;16.00;99.90
28244;DHT22;15510;52.512;13.300;2022-09-09T06:31:20;16.00;99.90
28244;DHT22;15510;52.512;13.300;2022-09-09T06:33:49;16.10;99.90
28244;DHT22;15510;52.512;13.300;2022-09-09T06:36:30;16.20;99.90
28244;DHT22;15510;52.512;13.300;2022-09-09T06:38:58;16.20;99.90
28244;DHT22;15510;52.512;13.300;2022-09-09T06:41:28;16.20;99.90
28244;DHT22;15510;52.512;13.300;2022-09-09T06:43:55;16.20;99.90
28244;DHT22;15510;52.512;13.300;2022-09-09T06:46:32;16.20;99.90
28244;DHT22;15510;52.512;13.300;2022-09-09T06:48:59;16.20;99.90
28244;DHT22;15510;52.512;13.300;2022-09-09T06:51:30;16.20;99.90
28244;DHT22;15510;52.512;13.300;2022-09-09T06:53:58;16.10;99.90
28244;DHT22;15510;52.512;13.300;2022-09-09T06:56:30;16.20;99.90
28244;DHT22;15510;52.512;13.300;2022-09-09T06:58:58;16.30;99.90
28244;DHT22;15510;52.512;13.300;2022-09-09T07:01:30;16.40;99.90
28244;DHT22;15510;52.512;13.300;2022-09-09T07:04:00;16.60;99.90
28244;DHT22;15510;52.512;13.300;2022-09-09T07:06:28;16.80;99.90
28244;DHT22;15510;52.512;13.300;2022-09-09T07:08:58;16.90;99.90
28244;DHT22;15510;52.512;13.300;2022-09-09T07:11:29;17.00;99.90
28244;DHT22;15510;52.512;13.300;2022-09-09T07:13:57;17.10;99.90
28244;DHT22;15510;52.512;13.300;2022-09-09T07:16:25;17.20;99.90
28244;DHT22;15510;52.512;13.300;2022-09-09T07:18:54;17.30;99.90
28244;DHT22;15510;52.512;13.300;2022-09-09T07:21:25;17.40;99.90
28244;DHT22;15510;52.512;13.300;2022-09-09T07:23:52;17.60;99.90
28244;DHT22;15510;52.512;13.300;2022-09-09T07:26:21;17.70;99.90
28244;DHT22;15510;52.512;13.300;2022-09-09T07:28:47;17.90;99.90
28244;DHT22;15510;52.512;13.300;2022-09-09T07:31:19;18.20;99.90
28244;DHT22;15510;52.512;13.300;2022-09-09T07:33:47;18.40;99.90
28244;DHT22;15510;52.512;13.300;2022-09-09T07:36:20;18.70;99.90
28244;DHT22;15510;52.512;13.300;2022-09-09T07:38:50;18.90;99.90
28244;DHT22;15510;52.512;13.300;2022-09-09T07:41:20;19.10;99.90
28244;DHT22;15510;52.512;13.300;2022-09-09T07:43:48;19.20;99.90
28244;DHT22;15510;52.512;13.300;2022-09-09T07:46:16;19.30;99.90
28244;DHT22;15510;52.512;13.300;2022-09-09T07:48:47;19.40;99.90
28244;DHT22;15510;52.512;13.300;2022-09-09T07:51:29;19.40;99.90
28244;DHT22;15510;52.512;13.300;2022-09-09T07:53:57;19.30;99.90
28244;DHT22;15510;52.512;13.300;2022-09-09T07:56:24;19.20;99.90
28244;DHT22;15510;52.512;13.300;2022-09-09T07:58:52;19.20;99.90
28244;DHT22;15510;52.512;13.300;2022-09-09T08:01:25;19.30;99.90
28244;DHT22;15510;52.512;13.300;2022-09-09T08:03:57;19.20;99.90
28244;DHT22;15510;52.512;13.300;2022-09-09T08:06:26;19.20;99.90
28244;DHT22;15510;52.512;13.300;2022-09-09T08:08:53;19.10;99.90
28244;DHT22;15510;52.512;13.300;2022-09-09T08:11:22;19.10;99.90
28244;DHT22;15510;52.512;13.300;2022-09-09T08:13:49;19.20;99.90
28244;DHT22;15510;52.512;13.300;2022-09-09T08:16:17;19.20;99.90
28244;DHT22;15510;52.512;13.300;2022-09-09T08:18:43;19.20;99.90
28244;DHT22;15510;52.512;13.300;2022-09-09T08:21:17;19.30;99.90
28244;DHT22;15510;52.512;13.300;2022-09-09T08:23:45;19.40;99.90
28244;DHT22;15510;52.512;13.300;2022-09-09T08:26:13;19.50;99.90
28244;DHT22;15510;52.512;13.300;2022-09-09T08:28:40;19.40;99.90
28244;DHT22;15510;52.512;13.300;2022-09-09T08:31:18;19.40;99.90
28244;DHT22;15510;52.512;13.300;2022-09-09T08:33:44;19.50;99.90
28244;DHT22;15510;52.512;13.300;2022-09-09T08:36:25;19.50;99.90
28244;DHT22;15510;52.512;13.300;2022-09-09T08:38:53;19.70;99.90
28244;DHT22;15510;52.512;13.300;2022-09-09T08:47:27;19.80;99.90
28244;DHT22;15510;52.512;13.300;2022-09-09T08:52:52;19.80;99.90
28244;DHT22;15510;52.512;13.300;2022-09-09T08:58:19;20.00;99.90
28244;DHT22;15510;52.512;13.300;2022-09-09T09:08:47;20.40;99.90
28244;DHT22;15510;52.512;13.300;2022-09-09T09:11:17;20.40;99.90
28244;DHT22;15510;52.512;13.300;2022-09-09T09:13:58;20.50;99.90
28244;DHT22;15510;52.512;13.300;2022-09-09T09:17:04;20.50;99.90
28244;DHT22;15510;52.512;13.300;2022-09-09T09:19:33;20.50;99.90
28244;DHT22;15510;52.512;13.300;2022-09-09T09:24:52;20.80;99.90
28244;DHT22;15510;52.512;13.300;2022-09-09T09:27:40;21.10;99.90
28244;DHT22;15510;52.512;13.300;2022-09-09T09:32:41;21.60;99.90
28244;DHT22;15510;52.512;13.300;2022-09-09T09:35:12;21.70;99.90
28244;DHT22;15510;52.512;13.300;2022-09-09T09:37:41;21.70;99.90
28244;DHT22;15510;52.512;13.300;2022-09-09T09:40:15;21.70;99.90
28244;DHT22;15510;52.512;13.300;2022-09-09T09:42:58;21.60;99.90
28244;DHT22;15510;52.512;13.300;2022-09-09T09:45:43;21.40;99.90
28244;DHT22;15510;52.512;13.300;2022-09-09T09:48:14;21.30;99.90
28244;DHT22;15510;52.512;13.300;2022-09-09T09:50:54;21.30;99.90
28244;DHT22;15510;52.512;13.300;2022-09-09T09:53:25;21.30;99.90
28244;DHT22;15510;52.512;13.300;2022-09-09T09:56:10;21.40;99.90
28244;DHT22;15510;52.512;13.300;2022-09-09T10:01:26;21.30;99.90
28244;DHT22;15510;52.512;13.300;2022-09-09T10:03:55;21.30;99.90
28244;DHT22;15510;52.512;13.300;2022-09-09T10:06:34;21.30;99.90
28244;DHT22;15510;52.512;13.300;2022-09-09T10:09:01;21.20;99.90
28244;DHT22;15510;52.512;13.300;2022-09-09T10:15:07;21.20;99.90
28244;DHT22;15510;52.512;13.300;2022-09-09T10:20:29;21.60;99.90
28244;DHT22;15510;52.512;13.300;2022-09-09T10:28:54;21.80;99.90
28244;DHT22;15510;52.512;13.300;2022-09-09T10:31:38;22.00;99.90
28244;DHT22;15510;52.512;13.300;2022-09-09T10:34:32;22.10;99.90
28244;DHT22;15510;52.512;13.300;2022-09-09T10:37:16;22.10;99.90
28244;DHT22;15510;52.512;13.300;2022-09-09T10:39:43;22.40;99.90
28244;DHT22;15510;52.512;13.300;2022-09-09T10:42:16;22.60;99.90
28244;DHT22;15510;52.512;13.300;2022-09-09T10:44:58;22.70;99.90
28244;DHT22;15510;52.512;13.300;2022-09-09T10:47:32;22.60;99.90
28244;DHT22;15510;52.512;13.300;2022-09-09T10:52:51;22.30;99.90
28244;DHT22;15510;52.512;13.300;2022-09-09T10:55:24;22.20;99.90
28244;DHT22;15510;52.512;13.300;2022-09-09T10:57:54;22.30;99.90
28244;DHT22;15510;52.512;13.300;2022-09-09T11:00:25;22.30;99.90
28244;DHT22;15510;52.512;13.300;2022-09-09T11:03:02;22.40;99.90
28244;DHT22;15510;52.512;13.300;2022-09-09T11:05:34;22.60;99.90
28244;DHT22;15510;52.512;13.300;2022-09-09T11:08:04;23.00;99.90
28244;DHT22;15510;52.512;13.300;2022-09-09T11:13:19;24.40;99.90
28244;DHT22;15510;52.512;13.300;2022-09-09T11:15:53;25.00;99.90
28244;DHT22;15510;52.512;13.300;2022-09-09T11:18:22;25.90;99.90
28244;DHT22;15510;52.512;13.300;2022-09-09T11:20:51;26.60;99.90
28244;DHT22;15510;52.512;13.300;2022-09-09T11:23:27;27.00;99.90
28244;DHT22;15510;52.512;13.300;2022-09-09T11:25:59;27.40;99.90
28244;DHT22;15510;52.512;13.300;2022-09-09T11:40:23;27.00;99.90
28244;DHT22;15510;52.512;13.300;2022-09-09T11:42:24;26.70;99.90
28244;DHT22;15510;52.512;13.300;2022-09-09T11:44:51;27.10;99.90
28244;DHT22;15510;52.512;13.300;2022-09-09T11:47:37;27.80;99.90
28244;DHT22;15510;52.512;13.300;2022-09-09T11:52:42;29.50;98.00
28244;DHT22;15510;52.512;13.300;2022-09-09T11:55:32;29.80;96.90
28244;DHT22;15510;52.512;13.300;2022-09-09T12:03:06;28.90;97.50
28244;DHT22;15510;52.512;13.300;2022-09-09T12:05:45;29.70;96.20
28244;DHT22;15510;52.512;13.300;2022-09-09T12:08:16;30.30;93.90
28244;DHT22;15510;52.512;13.300;2022-09-09T12:10:54;30.60;93.10
28244;DHT22;15510;52.512;13.300;2022-09-09T12:13:26;30.90;92.40
28244;DHT22;15510;52.512;13.300;2022-09-09T12:15:57;31.50;91.60
28244;DHT22;15510;52.512;13.300;2022-09-09T12:18:25;31.30;91.50
28244;DHT22;15510;52.512;13.300;2022-09-09T12:21:06;31.10;90.90
28244;DHT22;15510;52.512;13.300;2022-09-09T12:28:33;29.40;93.00
28244;DHT22;15510;52.512;13.300;2022-09-09T12:31:25;29.70;93.30
28244;DHT22;15510;52.512;13.300;2022-09-09T12:33:53;29.90;92.70
28244;DHT22;15510;52.512;13.300;2022-09-09T12:36:22;29.40;93.20
28244;DHT22;15510;52.512;13.300;2022-09-09T12:38:49;29.00;93.50
28244;DHT22;15510;52.512;13.300;2022-09-09T12:41:25;28.70;93.80
28244;DHT22;15510;52.512;13.300;2022-09-09T12:43:51;28.40;94.20
28244;DHT22;15510;52.512;13.300;2022-09-09T12:46:41;28.20;93.40
28244;DHT22;15510;52.512;13.300;2022-09-09T12:51:52;27.60;95.00
28244;DHT22;15510;52.512;13.300;2022-09-09T12:54:19;27.50;95.40
28244;DHT22;15510;52.512;13.300;2022-09-09T12:56:46;27.40;94.60
28244;DHT22;15510;52.512;13.300;2022-09-09T12:59:26;27.30;94.60
28244;DHT22;15510;52.512;13.300;2022-09-09T13:01:59;26.90;95.00
28244;DHT22;15510;52.512;13.300;2022-09-09T13:04:25;26.50;95.90
28244;DHT22;15510;52.512;13.300;2022-09-09T13:06:51;26.10;96.30
28244;DHT22;15510;52.512;13.300;2022-09-09T13:09:18;25.60;97.40
28244;DHT22;15510;52.512;13.300;2022-09-09T13:11:51;25.30;98.50
28244;DHT22;15510;52.512;13.300;2022-09-09T13:14:30;25.00;99.70
28244;DHT22;15510;52.512;13.300;2022-09-09T13:17:02;24.80;99.90
28244;DHT22;15510;52.512;13.300;2022-09-09T13:19:35;24.40;99.90
28244;DHT22;15510;52.512;13.300;2022-09-09T13:22:12;24.20;99.90
28244;DHT22;15510;52.512;13.300;2022-09-09T13:24:38;23.90;99.90
28244;DHT22;15510;52.512;13.300;2022-09-09T13:29:53;23.50;99.90
28244;DHT22;15510;52.512;13.300;2022-09-09T13:32:20;23.40;99.90
28244;DHT22;15510;52.512;13.300;2022-09-09T13:34:57;23.30;99.90
28244;DHT22;15510;52.512;13.300;2022-09-09T13:37:29;23.30;99.90
28244;DHT22;15510;52.512;13.300;2022-09-09T13:39:56;23.20;99.90
28244;DHT22;15510;52.512;13.300;2022-09-09T13:42:30;23.10;99.90
28244;DHT22;15510;52.512;13.300;2022-09-09T13:44:58;23.20;99.90
28244;DHT22;15510;52.512;13.300;2022-09-09T13:47:32;23.50;99.90
28244;DHT22;15510;52.512;13.300;2022-09-09T13:49:58;24.50;99.90
28244;DHT22;15510;52.512;13.300;2022-09-09T13:52:24;26.60;99.90
28244;DHT22;15510;52.512;13.300;2022-09-09T13:54:52;28.20;99.20
28244;DHT22;15510;52.512;13.300;2022-09-09T13:57:23;28.70;96.80
28244;DHT22;15510;52.512;13.300;2022-09-09T13:59:50;28.60;96.70
28244;DHT22;15510;52.512;13.300;2022-09-09T14:02:16;28.50;96.40
28244;DHT22;15510;52.512;13.300;2022-09-09T14:04:42;28.50;96.30
28244;DHT22;15510;52.512;13.300;2022-09-09T14:07:12;28.20;96.90
28244;DHT22;15510;52.512;13.300;2022-09-09T14:09:39;27.80;96.40
28244;DHT22;15510;52.512;13.300;2022-09-09T14:12:05;27.10;98.00
28244;DHT22;15510;52.512;13.300;2022-09-09T14:14:31;26.60;98.90
28244;DHT22;15510;52.512;13.300;2022-09-09T14:16:57;26.30;99.80
28244;DHT22;15510;52.512;13.300;2022-09-09T14:19:22;25.90;99.90
28244;DHT22;15510;52.512;13.300;2022-09-09T14:21:48;25.70;99.90
28244;DHT22;15510;52.512;13.300;2022-09-09T14:24:14;25.50;99.90
28244;DHT22;15510;52.512;13.300;2022-09-09T14:26:39;25.30;99.90
28244;DHT22;15510;52.512;13.300;2022-09-09T14:29:06;25.20;99.90
28244;DHT22;15510;52.512;13.300;2022-09-09T14:31:31;25.00;99.90
28244;DHT22;15510;52.512;13.300;2022-09-09T14:33:58;25.00;99.90
28244;DHT22;15510;52.512;13.300;2022-09-09T14:36:29;25.10;99.90
28244;DHT22;15510;52.512;13.300;2022-09-09T14:38:55;25.10;99.90
28244;DHT22;15510;52.512;13.300;2022-09-09T14:41:21;25.10;99.90
28244;DHT22;15510;52.512;13.300;2022-09-09T14:43:48;25.00;99.90
28244;DHT22;15510;52.512;13.300;2022-09-09T14:46:15;24.90;99.90
28244;DHT22;15510;52.512;13.300;2022-09-09T14:48:42;24.70;99.90
28244;DHT22;15510;52.512;13.300;2022-09-09T14:51:18;24.50;99.90
28244;DHT22;15510;52.512;13.300;2022-09-09T14:53:45;24.20;99.90
28244;DHT22;15510;52.512;13.300;2022-09-09T14:56:12;24.00;99.90
28244;DHT22;15510;52.512;13.300;2022-09-09T14:58:39;23.80;99.90
28244;DHT22;15510;52.512;13.300;2022-09-09T15:01:15;23.60;99.90
28244;DHT22;15510;52.512;13.300;2022-09-09T15:03:43;23.50;99.90
28244;DHT22;15510;52.512;13.300;2022-09-09T15:06:13;23.40;99.90
28244;DHT22;15510;52.512;13.300;2022-09-09T15:08:41;23.40;99.90
28244;DHT22;15510;52.512;13.300;2022-09-09T15:11:07;23.40;99.90
28244;DHT22;15510;52.512;13.300;2022-09-09T15:13:37;23.50;99.90
28244;DHT22;15510;52.512;13.300;2022-09-09T15:16:13;23.60;99.90
28244;DHT22;15510;52.512;13.300;2022-09-09T15:18:39;23.80;99.90
28244;DHT22;15510;52.512;13.300;2022-09-09T15:21:17;23.90;99.90
28244;DHT22;15510;52.512;13.300;2022-09-09T15:23:44;23.90;99.90
28244;DHT22;15510;52.512;13.300;2022-09-09T15:26:11;23.70;99.90
28244;DHT22;15510;52.512;13.300;2022-09-09T15:28:39;23.50;99.90
28244;DHT22;15510;52.512;13.300;2022-09-09T15:31:09;23.40;99.90
28244;DHT22;15510;52.512;13.300;2022-09-09T15:33:35;23.20;99.90
28244;DHT22;15510;52.512;13.300;2022-09-09T15:38:40;23.00;99.90
28244;DHT22;15510;52.512;13.300;2022-09-09T15:41:06;23.00;99.90
28244;DHT22;15510;52.512;13.300;2022-09-09T15:43:31;22.80;99.90
28244;DHT22;15510;52.512;13.300;2022-09-09T15:46:02;22.60;99.90
28244;DHT22;15510;52.512;13.300;2022-09-09T15:48:31;22.50;99.90
28244;DHT22;15510;52.512;13.300;2022-09-09T15:51:03;22.30;99.90
28244;DHT22;15510;52.512;13.300;2022-09-09T15:53:30;22.20;99.90
28244;DHT22;15510;52.512;13.300;2022-09-09T15:55:58;22.10;99.90
28244;DHT22;15510;52.512;13.300;2022-09-09T15:58:24;22.10;99.90
28244;DHT22;15510;52.512;13.300;2022-09-09T16:00:49;22.10;99.90
28244;DHT22;15510;52.512;13.300;2022-09-09T16:03:15;22.00;99.90
28244;DHT22;15510;52.512;13.300;2022-09-09T16:05:41;21.90;99.90
28244;DHT22;15510;52.512;13.300;2022-09-09T16:08:06;21.80;99.90
28244;DHT22;15510;52.512;13.300;2022-09-09T16:10:33;21.80;99.90
28244;DHT22;15510;52.512;13.300;2022-09-09T16:12:59;21.80;99.90
28244;DHT22;15510;52.512;13.300;2022-09-09T16:15:24;21.80;99.90
28244;DHT22;15510;52.512;13.300;2022-09-09T16:17:53;21.80;99.90
28244;DHT22;15510;52.512;13.300;2022-09-09T16:20:19;21.70;99.90
28244;DHT22;15510;52.512;13.300;2022-09-09T16:22:45;21.80;99.90
28244;DHT22;15510;52.512;13.300;2022-09-09T16:25:11;21.80;99.90
28244;DHT22;15510;52.512;13.300;2022-09-09T16:27:37;21.80;99.90
28244;DHT22;15510;52.512;13.300;2022-09-09T16:30:03;21.80;99.90
28244;DHT22;15510;52.512;13.300;2022-09-09T16:32:28;21.80;99.90
28244;DHT22;15510;52.512;13.300;2022-09-09T16:34:55;21.80;99.90
28244;DHT22;15510;52.512;13.300;2022-09-09T16:37:21;21.80;99.90
28244;DHT22;15510;52.512;13.300;2022-09-09T16:39:47;21.80;99.90
28244;DHT22;15510;52.512;13.300;2022-09-09T16:42:12;21.90;99.90
28244;DHT22;15510;52.512;13.300;2022-09-09T16:44:38;21.90;99.90
28244;DHT22;15510;52.512;13.300;2022-09-09T16:47:04;21.90;99.90
28244;DHT22;15510;52.512;13.300;2022-09-09T16:49:29;21.80;99.90
28244;DHT22;15510;52.512;13.300;2022-09-09T16:51:57;21.80;99.90
28244;DHT22;15510;52.512;13.300;2022-09-09T16:54:23;21.80;99.90
28244;DHT22;15510;52.512;13.300;2022-09-09T16:56:50;21.70;99.90
28244;DHT22;15510;52.512;13.300;2022-09-09T16:59:20;21.70;99.90
28244;DHT22;15510;52.512;13.300;2022-09-09T17:01:48;21.60;99.90
28244;DHT22;15510;52.512;13.300;2022-09-09T17:04:22;21.50;99.90
28244;DHT22;15510;52.512;13.300;2022-09-09T17:06:50;21.30;99.90
28244;DHT22;15510;52.512;13.300;2022-09-09T17:09:17;21.30;99.90
28244;DHT22;15510;52.512;13.300;2022-09-09T17:11:44;21.30;99.90
28244;DHT22;15510;52.512;13.300;2022-09-09T17:14:14;21.20;99.90